sensor_id;sensor_type;location;lat;lon;timestamp;temperature;humidity
2497;DHT22;1259;48.306;14.374;2022-09-01T00:01:40;14.70;99.90
2497;DHT22;1259;48.306;14.374;2022-09-01T00:04:15;14.60;99.90
2497;DHT22;1259;48.306;14.374;2022-09-01T00:06:42;14.60;99.90
2497;DHT22;1259;48.306;14.374;2022-09-01T00:09:13;14.60;99.90
2497;DHT22;1259;48.306;14.374;2022-09-01T00:11:43;14.50;99.90
2497;DHT22;1259;48.306;14.374;2022-09-01T00:14:11;14.50;99.90
2497;DHT22;1259;48.306;14.374;2022-09-01T00:16:38;14.60;99.90
2497;DHT22;1259;48.306;14.374;2022-09-01T00:19:06;14.50;99.90
2497;DHT22;1259;48.306;14.374;2022-09-01T00:21:36;14.60;99.90
2497;DHT22;1259;48.306;14.374;2022-09-01T00:24:04;14.60;99.90
2497;DHT22;1259;48.306;14.374;2022-09-01T00:26:31;14.60;99.90
2497;DHT22;1259;48.306;14.374;2022-09-01T00:28:58;14.60;99.90
2497;DHT22;1259;48.306;14.374;2022-09-01T00:31:26;14.50;99.90
2497;DHT22;1259;48.306;14.374;2022-09-01T00:33:53;14.50;99.90
2497;DHT22;1259;48.306;14.374;2022-09-01T00:36:22;14.50;99.90
2497;DHT22;1259;48.306;14.374;2022-09-01T00:38:50;14.60;99.90
2497;DHT22;1259;48.306;14.374;2022-09-01T00:41:19;14.60;99.90
2497;DHT22;1259;48.306;14.374;2022-09-01T00:43:49;14.60;99.90
2497;DHT22;1259;48.306;14.374;2022-09-01T00:46:18;14.60;99.90
2497;DHT22;1259;48.306;14.374;2022-09-01T00:48:46;14.50;99.90
2497;DHT22;1259;48.306;14.374;2022-09-01T00:51:17;14.50;99.90
2497;DHT22;1259;48.306;14.374;2022-09-01T00:53:45;14.50;99.90
2497;DHT22;1259;48.306;14.374;2022-09-01T00:56:13;14.40;99.90
2497;DHT22;1259;48.306;14.374;2022-09-01T00:58:41;14.50;99.90
2497;DHT22;1259;48.306;14.374;2022-09-01T01:01:10;14.40;99.90
2497;DHT22;1259;48.306;14.374;2022-09-01T01:03:38;14.50;99.90
2497;DHT22;1259;48.306;14.374;2022-09-01T01:06:09;14.50;99.90
2497;DHT22;1259;48.306;14.374;2022-09-01T01:08:42;14.50;99.90
2497;DHT22;1259;48.306;14.374;2022-09-01T01:11:18;14.40;99.90
2497;DHT22;1259;48.306;14.374;2022-09-01T01:13:50;14.30;99.90
2497;DHT22;1259;48.306;14.374;2022-09-01T01:16:17;14.30;99.90
2497;DHT22;1259;48.306;14.374;2022-09-01T01:18:44;14.30;99.90
2497;DHT22;1259;48.306;14.374;2022-09-01T01:21:17;14.40;99.90
2497;DHT22;1259;48.306;14.374;2022-09-01T01:24:08;14.50;99.90
2497;DHT22;1259;48.306;14.374;2022-09-01T01:26:37;14.50;99.90
2497;DHT22;1259;48.306;14.374;2022-09-01T01:29:05;14.50;99.90
2497;DHT22;1259;48.306;14.374;2022-09-01T01:31:34;14.50;99.90
2497;DHT22;1259;48.306;14.374;2022-09-01T01:34:01;14.50;99.90
2497;DHT22;1259;48.306;14.374;2022-09-01T01:36:33;14.50;99.90
2497;DHT22;1259;48.306;14.374;2022-09-01T01:39:05;14.50;99.90
2497;DHT22;1259;48.306;14.374;2022-09-01T01:41:34;14.40;99.90
2497;DHT22;1259;48.306;14.374;2022-09-01T01:44:07;14.40;99.90
2497;DHT22;1259;48.306;14.374;2022-09-01T01:46:35;14.50;99.90
2497;DHT22;1259;48.306;14.374;2022-09-01T01:49:07;14.50;99.90
2497;DHT22;1259;48.306;14.374;2022-09-01T01:51:34;14.50;99.90
2497;DHT22;1259;48.306;14.374;2022-09-01T01:54:01;14.40;99.90
2497;DHT22;1259;48.306;14.374;2022-09-01T01:56:31;14.40;99.90
2497;DHT22;1259;48.306;14.374;2022-09-01T01:58:58;14.40;99.90
2497;DHT22;1259;48.306;14.374;2022-09-01T02:01:28;14.40;99.90
2497;DHT22;1259;48.306;14.374;2022-09-01T02:03:57;14.40;99.90
2497;DHT22;1259;48.306;14.374;2022-09-01T02:06:26;14.40;99.90
2497;DHT22;1259;48.306;14.374;2022-09-01T02:08:55;14.50;99.90
2497;DHT22;1259;48.306;14.374;2022-09-01T02:11:23;14.50;99.90
2497;DHT22;1259;48.306;14.374;2022-09-01T02:13:50;14.50;99.90
2497;DHT22;1259;48.306;14.374;2022-09-01T02:16:22;14.30;99.90
2497;DHT22;1259;48.306;14.374;2022-09-01T02:18:51;14.40;99.90
2497;DHT22;1259;48.306;14.374;2022-09-01T02:21:21;14.40;99.90
2497;DHT22;1259;48.306;14.374;2022-09-01T02:23:51;14.30;99.90
2497;DHT22;1259;48.306;14.374;2022-09-01T02:26:22;14.30;99.90
2497;DHT22;1259;48.306;14.374;2022-09-01T02:28:52;14.40;99.90
2497;DHT22;1259;48.306;14.374;2022-09-01T02:31:20;14.30;99.90
2497;DHT22;1259;48.306;14.374;2022-09-01T02:33:47;14.30;99.90
2497;DHT22;1259;48.306;14.374;2022-09-01T02:36:17;14.30;99.90
2497;DHT22;1259;48.306;14.374;2022-09-01T02:38:46;14.20;99.90
2497;DHT22;1259;48.306;14.374;2022-09-01T02:41:15;14.20;99.90
2497;DHT22;1259;48.306;14.374;2022-09-01T02:43:45;14.20;99.90
2497;DHT22;1259;48.306;14.374;2022-09-01T02:46:12;14.10;99.90
2497;DHT22;1259;48.306;14.374;2022-09-01T02:48:41;14.10;99.90
2497;DHT22;1259;48.306;14.374;2022-09-01T02:51:12;14.00;99.90
2497;DHT22;1259;48.306;14.374;2022-09-01T02:53:42;14.10;99.90
2497;DHT22;1259;48.306;14.374;2022-09-01T02:56:10;14.00;99.90
2497;DHT22;1259;48.306;14.374;2022-09-01T02:58:40;14.00;99.90
2497;DHT22;1259;48.306;14.374;2022-09-01T03:01:13;14.00;99.90
2497;DHT22;1259;48.306;14.374;2022-09-01T03:03:41;14.00;99.90
2497;DHT22;1259;48.306;14.374;2022-09-01T03:06:08;14.00;99.90
2497;DHT22;1259;48.306;14.374;2022-09-01T03:08:38;13.90;99.90
2497;DHT22;1259;48.306;14.374;2022-09-01T03:11:07;13.90;99.90
2497;DHT22;1259;48.306;14.374;2022-09-01T03:13:36;13.90;99.90
2497;DHT22;1259;48.306;14.374;2022-09-01T03:16:04;13.90;99.90
2497;DHT22;1259;48.306;14.374;2022-09-01T03:18:32;13.90;99.90
2497;DHT22;1259;48.306;14.374;2022-09-01T03:20:59;13.90;99.90
2497;DHT22;1259;48.306;14.374;2022-09-01T03:23:27;13.80;99.90
2497;DHT22;1259;48.306;14.374;2022-09-01T03:25:54;13.80;99.90
2497;DHT22;1259;48.306;14.374;2022-09-01T03:28:23;13.80;99.90
2497;DHT22;1259;48.306;14.374;2022-09-01T03:30:51;13.80;99.90
2497;DHT22;1259;48.306;14.374;2022-09-01T03:33:21;13.60;99.90
2497;DHT22;1259;48.306;14.374;2022-09-01T03:35:48;13.60;99.90
2497;DHT22;1259;48.306;14.374;2022-09-01T03:38:16;13.50;99.90
2497;DHT22;1259;48.306;14.374;2022-09-01T03:40:47;13.50;99.90
2497;DHT22;1259;48.306;14.374;2022-09-01T03:43:15;13.50;99.90
2497;DHT22;1259;48.306;14.374;2022-09-01T03:45:44;13.50;99.90
2497;DHT22;1259;48.306;14.374;2022-09-01T03:48:12;13.60;99.90
2497;DHT22;1259;48.306;14.374;2022-09-01T03:50:43;13.70;99.90
2497;DHT22;1259;48.306;14.374;2022-09-01T03:53:12;13.70;99.90
2497;DHT22;1259;48.306;14.374;2022-09-01T03:55:42;13.70;99.90
2497;DHT22;1259;48.306;14.374;2022-09-01T03:58:10;13.60;99.90
2497;DHT22;1259;48.306;14.374;2022-09-01T04:00:41;13.50;99.90
2497;DHT22;1259;48.306;14.374;2022-09-01T04:03:11;13.50;99.90
2497;DHT22;1259;48.306;14.374;2022-09-01T04:05:41;13.40;99.90
2497;DHT22;1259;48.306;14.374;2022-09-01T04:08:10;13.30;99.90
2497;DHT22;1259;48.306;14.374;2022-09-01T04:10:43;13.30;99.90
2497;DHT22;1259;48.306;14.374;2022-09-01T04:13:15;13.30;99.90
2497;DHT22;1259;48.306;14.374;2022-09-01T04:15:42;13.30;99.90
2497;DHT22;1259;48.306;14.374;2022-09-01T04:18:12;13.30;99.90
2497;DHT22;1259;48.306;14.374;2022-09-01T04:20:46;13.30;99.90
2497;DHT22;1259;48.306;14.374;2022-09-01T04:23:17;13.40;99.90
2497;DHT22;1259;48.306;14.374;2022-09-01T04:25:52;13.30;99.90
2497;DHT22;1259;48.306;14.374;2022-09-01T04:28:25;13.40;99.90
2497;DHT22;1259;48.306;14.374;2022-09-01T04:31:00;13.40;99.90
2497;DHT22;1259;48.306;14.374;2022-09-01T04:33:36;13.40;99.90
2497;DHT22;1259;48.306;14.374;2022-09-01T04:36:06;13.50;99.90
2497;DHT22;1259;48.306;14.374;2022-09-01T04:38:38;13.40;99.90
2497;DHT22;1259;48.306;14.374;2022-09-01T04:41:06;13.50;99.90
2497;DHT22;1259;48.306;14.374;2022-09-01T04:43:34;13.50;99.90
2497;DHT22;1259;48.306;14.374;2022-09-01T04:46:01;13.50;99.90
2497;DHT22;1259;48.306;14.374;2022-09-01T04:48:28;13.40;99.90
2497;DHT22;1259;48.306;14.374;2022-09-01T04:50:57;13.40;99.90
2497;DHT22;1259;48.306;14.374;2022-09-01T04:53:24;13.40;99.90
2497;DHT22;1259;48.306;14.374;2022-09-01T04:55:52;13.40;99.90
2497;DHT22;1259;48.306;14.374;2022-09-01T04:58:20;13.40;99.90
2497;DHT22;1259;48.306;14.374;2022-09-01T05:00:49;13.40;99.90
2497;DHT22;1259;48.306;14.374;2022-09-01T05:03:17;13.40;99.90
2497;DHT22;1259;48.306;14.374;2022-09-01T05:05:46;13.60;99.90
2497;DHT22;1259;48.306;14.374;2022-09-01T05:08:16;13.50;99.90
2497;DHT22;1259;48.306;14.374;2022-09-01T05:10:47;13.50;99.90
2497;DHT22;1259;48.306;14.374;2022-09-01T05:13:15;13.50;99.90
2497;DHT22;1259;48.306;14.374;2022-09-01T05:15:44;13.40;99.90
2497;DHT22;1259;48.306;14.374;2022-09-01T05:18:13;13.50;99.90
2497;DHT22;1259;48.306;14.374;2022-09-01T05:20:41;13.40;99.90
2497;DHT22;1259;48.306;14.374;2022-09-01T05:23:10;13.40;99.90
2497;DHT22;1259;48.306;14.374;2022-09-01T05:25:41;13.40;99.90
2497;DHT22;1259;48.306;14.374;2022-09-01T05:28:09;13.40;99.90
2497;DHT22;1259;48.306;14.374;2022-09-01T05:30:38;13.40;99.90
2497;DHT22;1259;48.306;14.374;2022-09-01T05:33:06;13.40;99.90
2497;DHT22;1259;48.306;14.374;2022-09-01T05:35:37;13.40;99.90
2497;DHT22;1259;48.306;14.374;2022-09-01T05:38:08;13.40;99.90
2497;DHT22;1259;48.306;14.374;2022-09-01T05:40:38;13.40;99.90
2497;DHT22;1259;48.306;14.374;2022-09-01T05:43:07;13.40;99.90
2497;DHT22;1259;48.306;14.374;2022-09-01T05:45:38;13.40;99.90
2497;DHT22;1259;48.306;14.374;2022-09-01T05:48:07;13.30;99.90
2497;DHT22;1259;48.306;14.374;2022-09-01T05:50:35;13.30;99.90
2497;DHT22;1259;48.306;14.374;2022-09-01T05:53:05;13.30;99.90
2497;DHT22;1259;48.306;14.374;2022-09-01T05:55:36;13.30;99.90
2497;DHT22;1259;48.306;14.374;2022-09-01T05:58:03;13.30;99.90
2497;DHT22;1259;48.306;14.374;2022-09-01T06:00:31;13.30;99.90
2497;DHT22;1259;48.306;14.374;2022-09-01T06:02:59;13.20;99.90
2497;DHT22;1259;48.306;14.374;2022-09-01T06:05:29;13.30;99.90
2497;DHT22;1259;48.306;14.374;2022-09-01T06:07:56;13.40;99.90
2497;DHT22;1259;48.306;14.374;2022-09-01T06:10:23;13.50;99.90
2497;DHT22;1259;48.306;14.374;2022-09-01T06:12:51;13.60;99.90
2497;DHT22;1259;48.306;14.374;2022-09-01T06:15:18;13.70;99.90
2497;DHT22;1259;48.306;14.374;2022-09-01T06:17:46;13.70;99.90
2497;DHT22;1259;48.306;14.374;2022-09-01T06:20:13;13.80;99.90
2497;DHT22;1259;48.306;14.374;2022-09-01T06:22:43;13.90;99.90
2497;DHT22;1259;48.306;14.374;2022-09-01T06:25:10;13.90;99.90
2497;DHT22;1259;48.306;14.374;2022-09-01T06:27:37;13.90;99.90
2497;DHT22;1259;48.306;14.374;2022-09-01T06:30:06;14.00;99.90
2497;DHT22;1259;48.306;14.374;2022-09-01T06:32:39;14.00;99.90
2497;DHT22;1259;48.306;14.374;2022-09-01T06:35:10;14.00;99.90
2497;DHT22;1259;48.306;14.374;2022-09-01T06:37:38;14.00;99.90
2497;DHT22;1259;48.306;14.374;2022-09-01T06:40:09;14.10;99.90
2497;DHT22;1259;48.306;14.374;2022-09-01T06:42:41;14.10;99.90
2497;DHT22;1259;48.306;14.374;2022-09-01T06:45:10;14.10;99.90
2497;DHT22;1259;48.306;14.374;2022-09-01T06:47:37;14.10;99.90
2497;DHT22;1259;48.306;14.374;2022-09-01T06:50:04;14.20;99.90
2497;DHT22;1259;48.306;14.374;2022-09-01T06:52:34;14.20;99.90
2497;DHT22;1259;48.306;14.374;2022-09-01T06:55:03;14.20;99.90
2497;DHT22;1259;48.306;14.374;2022-09-01T06:57:30;14.30;99.90
2497;DHT22;1259;48.306;14.374;2022-09-01T06:59:57;14.40;99.90
2497;DHT22;1259;48.306;14.374;2022-09-01T07:02:24;14.30;99.90
2497;DHT22;1259;48.306;14.374;2022-09-01T07:04:51;14.30;99.90
2497;DHT22;1259;48.306;14.374;2022-09-01T07:07:18;14.30;99.90
2497;DHT22;1259;48.306;14.374;2022-09-01T07:09:47;14.50;99.90
2497;DHT22;1259;48.306;14.374;2022-09-01T07:12:14;14.50;99.90
2497;DHT22;1259;48.306;14.374;2022-09-01T07:14:44;14.70;99.90
2497;DHT22;1259;48.306;14.374;2022-09-01T07:17:12;14.90;99.90
2497;DHT22;1259;48.306;14.374;2022-09-01T07:19:40;15.00;99.90
2497;DHT22;1259;48.306;14.374;2022-09-01T07:22:07;14.90;99.90
2497;DHT22;1259;48.306;14.374;2022-09-01T07:24:34;14.90;99.90
2497;DHT22;1259;48.306;14.374;2022-09-01T07:27:02;14.90;99.90
2497;DHT22;1259;48.306;14.374;2022-09-01T07:29:29;15.00;99.90
2497;DHT22;1259;48.306;14.374;2022-09-01T07:31:57;15.10;99.90
2497;DHT22;1259;48.306;14.374;2022-09-01T07:34:24;15.20;99.90
2497;DHT22;1259;48.306;14.374;2022-09-01T07:36:52;15.20;99.90
2497;DHT22;1259;48.306;14.374;2022-09-01T07:39:23;15.30;99.90
2497;DHT22;1259;48.306;14.374;2022-09-01T07:41:50;15.40;99.90
2497;DHT22;1259;48.306;14.374;2022-09-01T07:44:19;15.40;99.90
2497;DHT22;1259;48.306;14.374;2022-09-01T07:46:45;15.50;99.90
2497;DHT22;1259;48.306;14.374;2022-09-01T07:49:16;15.50;99.90
2497;DHT22;1259;48.306;14.374;2022-09-01T07:51:43;15.50;99.90
2497;DHT22;1259;48.306;14.374;2022-09-01T07:54:16;15.60;99.90
2497;DHT22;1259;48.306;14.374;2022-09-01T07:56:43;15.70;99.90
2497;DHT22;1259;48.306;14.374;2022-09-01T07:59:10;15.80;99.90
2497;DHT22;1259;48.306;14.374;2022-09-01T08:01:38;15.90;99.90
2497;DHT22;1259;48.306;14.374;2022-09-01T08:04:07;16.00;99.90
2497;DHT22;1259;48.306;14.374;2022-09-01T08:06:34;16.00;99.90
2497;DHT22;1259;48.306;14.374;2022-09-01T08:09:03;16.10;99.90
2497;DHT22;1259;48.306;14.374;2022-09-01T08:11:31;16.20;99.90
2497;DHT22;1259;48.306;14.374;2022-09-01T08:13:59;16.30;99.90
2497;DHT22;1259;48.306;14.374;2022-09-01T08:16:28;16.60;99.90
2497;DHT22;1259;48.306;14.374;2022-09-01T08:18:57;16.90;99.90
2497;DHT22;1259;48.306;14.374;2022-09-01T08:21:24;16.90;99.90
2497;DHT22;1259;48.306;14.374;2022-09-01T08:23:53;16.70;99.90
2497;DHT22;1259;48.306;14.374;2022-09-01T08:26:22;16.90;99.90
2497;DHT22;1259;48.306;14.374;2022-09-01T08:28:50;16.90;99.90
2497;DHT22;1259;48.306;14.374;2022-09-01T08:31:18;17.10;99.90
2497;DHT22;1259;48.306;14.374;2022-09-01T08:33:47;17.00;99.90
2497;DHT22;1259;48.306;14.374;2022-09-01T08:36:16;17.30;99.90
2497;DHT22;1259;48.306;14.374;2022-09-01T08:38:43;17.60;99.90
2497;DHT22;1259;48.306;14.374;2022-09-01T08:41:15;17.70;99.90
2497;DHT22;1259;48.306;14.374;2022-09-01T08:43:52;17.60;99.90
2497;DHT22;1259;48.306;14.374;2022-09-01T08:46:24;17.40;99.90
2497;DHT22;1259;48.306;14.374;2022-09-01T08:48:53;17.70;99.90
2497;DHT22;1259;48.306;14.374;2022-09-01T08:51:26;17.90;99.90
2497;DHT22;1259;48.306;14.374;2022-09-01T08:54:00;17.60;99.90
2497;DHT22;1259;48.306;14.374;2022-09-01T08:56:29;17.70;99.90
2497;DHT22;1259;48.306;14.374;2022-09-01T08:58:57;17.80;99.90
2497;DHT22;1259;48.306;14.374;2022-09-01T09:01:30;17.70;99.90
2497;DHT22;1259;48.306;14.374;2022-09-01T09:04:12;17.40;99.90
2497;DHT22;1259;48.306;14.374;2022-09-01T09:06:51;17.60;99.90
2497;DHT22;1259;48.306;14.374;2022-09-01T09:09:29;18.00;99.90
2497;DHT22;1259;48.306;14.374;2022-09-01T09:15:10;18.70;99.90
2497;DHT22;1259;48.306;14.374;2022-09-01T09:17:47;18.70;99.90
2497;DHT22;1259;48.306;14.374;2022-09-01T09:20:15;18.90;99.90
2497;DHT22;1259;48.306;14.374;2022-09-01T09:22:44;19.20;99.90
2497;DHT22;1259;48.306;14.374;2022-09-01T09:25:15;19.30;99.90
2497;DHT22;1259;48.306;14.374;2022-09-01T09:27:49;19.40;99.90
2497;DHT22;1259;48.306;14.374;2022-09-01T09:30:20;19.70;99.90
2497;DHT22;1259;48.306;14.374;2022-09-01T09:32:50;19.70;99.90
2497;DHT22;1259;48.306;14.374;2022-09-01T09:35:27;19.60;99.90
2497;DHT22;1259;48.306;14.374;2022-09-01T09:38:15;19.50;99.90
2497;DHT22;1259;48.306;14.374;2022-09-01T09:40:59;19.70;99.90
2497;DHT22;1259;48.306;14.374;2022-09-01T09:43:31;19.90;99.90
2497;DHT22;1259;48.306;14.374;2022-09-01T09:46:26;20.10;99.90
2497;DHT22;1259;48.306;14.374;2022-09-01T09:49:09;20.20;99.90
2497;DHT22;1259;48.306;14.374;2022-09-01T09:51:37;20.40;99.90
2497;DHT22;1259;48.306;14.374;2022-09-01T09:54:13;20.50;99.90
2497;DHT22;1259;48.306;14.374;2022-09-01T09:56:41;20.70;99.90
2497;DHT22;1259;48.306;14.374;2022-09-01T09:59:23;20.80;99.90
2497;DHT22;1259;48.306;14.374;2022-09-01T10:01:56;20.90;99.90
2497;DHT22;1259;48.306;14.374;2022-09-01T10:04:37;21.10;99.90
2497;DHT22;1259;48.306;14.374;2022-09-01T10:07:23;21.10;99.90
2497;DHT22;1259;48.306;14.374;2022-09-01T10:09:53;21.10;99.90
2497;DHT22;1259;48.306;14.374;2022-09-01T10:12:21;20.90;99.90
2497;DHT22;1259;48.306;14.374;2022-09-01T10:14:51;20.60;99.90
2497;DHT22;1259;48.306;14.374;2022-09-01T10:17:23;20.60;99.90
2497;DHT22;1259;48.306;14.374;2022-09-01T10:19:55;20.40;99.90
2497;DHT22;1259;48.306;14.374;2022-09-01T10:22:23;20.40;99.90
2497;DHT22;1259;48.306;14.374;2022-09-01T10:24:52;20.40;99.90
2497;DHT22;1259;48.306;14.374;2022-09-01T10:27:22;20.00;99.90
2497;DHT22;1259;48.306;14.374;2022-09-01T10:29:53;20.10;99.90
2497;DHT22;1259;48.306;14.374;2022-09-01T10:32:25;20.00;99.90
2497;DHT22;1259;48.306;14.374;2022-09-01T10:34:54;19.60;99.90
2497;DHT22;1259;48.306;14.374;2022-09-01T10:37:22;19.80;99.90
2497;DHT22;1259;48.306;14.374;2022-09-01T10:40:10;19.90;99.90
2497;DHT22;1259;48.306;14.374;2022-09-01T10:42:39;19.90;99.90
2497;DHT22;1259;48.306;14.374;2022-09-01T10:45:17;19.90;99.90
2497;DHT22;1259;48.306;14.374;2022-09-01T10:47:44;20.00;99.90
2497;DHT22;1259;48.306;14.374;2022-09-01T10:50:27;20.10;99.90
2497;DHT22;1259;48.306;14.374;2022-09-01T10:53:01;20.30;99.90
2497;DHT22;1259;48.306;14.374;2022-09-01T10:55:37;20.30;99.90
2497;DHT22;1259;48.306;14.374;2022-09-01T10:58:34;20.50;99.90
2497;DHT22;1259;48.306;14.374;2022-09-01T11:01:05;20.60;99.90
2497;DHT22;1259;48.306;14.374;2022-09-01T11:06:54;20.60;99.90
2497;DHT22;1259;48.306;14.374;2022-09-01T11:09:25;20.50;99.90
2497;DHT22;1259;48.306;14.374;2022-09-01T11:12:37;20.80;99.90
2497;DHT22;1259;48.306;14.374;2022-09-01T11:15:32;20.90;99.90
2497;DHT22;1259;48.306;14.374;2022-09-01T11:17:59;20.60;99.90
2497;DHT22;1259;48.306;14.374;2022-09-01T11:20:29;20.60;99.90
2497;DHT22;1259;48.306;14.374;2022-09-01T11:23:00;20.50;99.90
2497;DHT22;1259;48.306;14.374;2022-09-01T11:25:36;20.30;99.90
2497;DHT22;1259;48.306;14.374;2022-09-01T11:30:53;19.70;99.90
2497;DHT22;1259;48.306;14.374;2022-09-01T11:33:40;19.40;99.90
2497;DHT22;1259;48.306;14.374;2022-09-01T11:36:14;19.30;99.90
2497;DHT22;1259;48.306;14.374;2022-09-01T11:38:47;19.30;99.90
2497;DHT22;1259;48.306;14.374;2022-09-01T11:41:22;19.70;99.90
2497;DHT22;1259;48.306;14.374;2022-09-01T11:43:55;20.00;99.90
2497;DHT22;1259;48.306;14.374;2022-09-01T11:46:27;20.30;99.90
2497;DHT22;1259;48.306;14.374;2022-09-01T11:49:02;20.10;99.90
2497;DHT22;1259;48.306;14.374;2022-09-01T11:51:46;19.90;99.90
2497;DHT22;1259;48.306;14.374;2022-09-01T11:54:14;20.00;99.90
2497;DHT22;1259;48.306;14.374;2022-09-01T11:56:41;19.90;99.90
2497;DHT22;1259;48.306;14.374;2022-09-01T11:59:09;19.50;99.90
2497;DHT22;1259;48.306;14.374;2022-09-01T12:01:38;19.40;99.90
2497;DHT22;1259;48.306;14.374;2022-09-01T12:04:20;19.50;99.90
2497;DHT22;1259;48.306;14.374;2022-09-01T12:06:56;19.30;99.90
2497;DHT22;1259;48.306;14.374;2022-09-01T12:09:35;19.20;99.90
2497;DHT22;1259;48.306;14.374;2022-09-01T12:12:03;18.90;99.90
2497;DHT22;1259;48.306;14.374;2022-09-01T12:14:32;18.70;99.90
2497;DHT22;1259;48.306;14.374;2022-09-01T12:17:03;18.80;99.90
2497;DHT22;1259;48.306;14.374;2022-09-01T12:19:35;18.70;99.90
2497;DHT22;1259;48.306;14.374;2022-09-01T12:22:12;18.80;99.90
2497;DHT22;1259;48.306;14.374;2022-09-01T12:24:45;18.90;99.90
2497;DHT22;1259;48.306;14.374;2022-09-01T12:27:13;18.90;99.90
2497;DHT22;1259;48.306;14.374;2022-09-01T12:29:42;19.00;99.90
2497;DHT22;1259;48.306;14.374;2022-09-01T12:32:13;19.10;99.90
2497;DHT22;1259;48.306;14.374;2022-09-01T12:34:42;19.00;99.90
2497;DHT22;1259;48.306;14.374;2022-09-01T12:37:19;19.10;99.90
2497;DHT22;1259;48.306;14.374;2022-09-01T12:39:50;18.80;99.90
2497;DHT22;1259;48.306;14.374;2022-09-01T12:42:24;18.60;99.90
2497;DHT22;1259;48.306;14.374;2022-09-01T12:44:55;18.50;99.90
2497;DHT22;1259;48.306;14.374;2022-09-01T12:47:45;18.50;99.90
2497;DHT22;1259;48.306;14.374;2022-09-01T12:50:35;18.50;99.90
2497;DHT22;1259;48.306;14.374;2022-09-01T12:53:15;18.70;99.90
2497;DHT22;1259;48.306;14.374;2022-09-01T12:56:01;18.70;99.90
2497;DHT22;1259;48.306;14.374;2022-09-01T12:58:28;18.80;99.90
2497;DHT22;1259;48.306;14.374;2022-09-01T13:01:02;18.80;99.90
2497;DHT22;1259;48.306;14.374;2022-09-01T13:03:33;18.80;99.90
2497;DHT22;1259;48.306;14.374;2022-09-01T13:06:01;18.80;99.90
2497;DHT22;1259;48.306;14.374;2022-09-01T13:08:30;18.70;99.90
2497;DHT22;1259;48.306;14.374;2022-09-01T13:11:02;18.70;99.90
2497;DHT22;1259;48.306;14.374;2022-09-01T13:13:30;18.70;99.90
2497;DHT22;1259;48.306;14.374;2022-09-01T13:16:02;18.70;99.90
2497;DHT22;1259;48.306;14.374;2022-09-01T13:18:37;18.80;99.90
2497;DHT22;1259;48.306;14.374;2022-09-01T13:21:05;18.90;99.90
2497;DHT22;1259;48.306;14.374;2022-09-01T13:23:32;19.00;99.90
2497;DHT22;1259;48.306;14.374;2022-09-01T13:25:59;19.00;99.90
2497;DHT22;1259;48.306;14.374;2022-09-01T13:28:26;19.00;99.90
2497;DHT22;1259;48.306;14.374;2022-09-01T13:30:56;18.80;99.90
2497;DHT22;1259;48.306;14.374;2022-09-01T13:33:25;18.80;99.90
2497;DHT22;1259;48.306;14.374;2022-09-01T13:35:53;18.80;99.90
2497;DHT22;1259;48.306;14.374;2022-09-01T13:38:23;18.70;99.90
2497;DHT22;1259;48.306;14.374;2022-09-01T13:40:50;18.70;99.90
2497;DHT22;1259;48.306;14.374;2022-09-01T13:43:19;18.50;99.90
2497;DHT22;1259;48.306;14.374;2022-09-01T13:45:47;18.40;99.90
2497;DHT22;1259;48.306;14.374;2022-09-01T13:48:15;18.50;99.90
2497;DHT22;1259;48.306;14.374;2022-09-01T13:50:45;18.50;99.90
2497;DHT22;1259;48.306;14.374;2022-09-01T13:53:14;18.50;99.90
2497;DHT22;1259;48.306;14.374;2022-09-01T13:55:41;18.50;99.90
2497;DHT22;1259;48.306;14.374;2022-09-01T13:58:09;18.60;99.90
2497;DHT22;1259;48.306;14.374;2022-09-01T14:00:38;18.50;99.90
2497;DHT22;1259;48.306;14.374;2022-09-01T14:03:08;18.60;99.90
2497;DHT22;1259;48.306;14.374;2022-09-01T14:05:38;18.50;99.90
2497;DHT22;1259;48.306;14.374;2022-09-01T14:08:07;18.40;99.90
2497;DHT22;1259;48.306;14.374;2022-09-01T14:10:38;18.50;99.90
2497;DHT22;1259;48.306;14.374;2022-09-01T14:13:06;18.60;99.90
2497;DHT22;1259;48.306;14.374;2022-09-01T14:15:33;18.50;99.90
2497;DHT22;1259;48.306;14.374;2022-09-01T14:18:00;18.40;99.90
2497;DHT22;1259;48.306;14.374;2022-09-01T14:20:30;18.30;99.90
2497;DHT22;1259;48.306;14.374;2022-09-01T14:22:58;18.40;99.90
2497;DHT22;1259;48.306;14.374;2022-09-01T14:25:27;18.40;99.90
2497;DHT22;1259;48.306;14.374;2022-09-01T14:27:58;18.50;99.90
2497;DHT22;1259;48.306;14.374;2022-09-01T14:30:27;18.40;99.90
2497;DHT22;1259;48.306;14.374;2022-09-01T14:32:57;18.30;99.90
2497;DHT22;1259;48.306;14.374;2022-09-01T14:35:27;18.30;99.90
2497;DHT22;1259;48.306;14.374;2022-09-01T14:37:58;18.30;99.90
2497;DHT22;1259;48.306;14.374;2022-09-01T14:40:31;18.30;99.90
2497;DHT22;1259;48.306;14.374;2022-09-01T14:42:58;18.40;99.90
2497;DHT22;1259;48.306;14.374;2022-09-01T14:45:26;18.40;99.90
2497;DHT22;1259;48.306;14.374;2022-09-01T14:47:55;18.40;99.90
2497;DHT22;1259;48.306;14.374;2022-09-01T14:50:23;18.50;99.90
2497;DHT22;1259;48.306;14.374;2022-09-01T14:53:00;18.40;99.90
2497;DHT22;1259;48.306;14.374;2022-09-01T14:55:30;18.40;99.90
2497;DHT22;1259;48.306;14.374;2022-09-01T14:57:59;18.30;99.90
2497;DHT22;1259;48.306;14.374;2022-09-01T15:00:33;18.30;99.90
2497;DHT22;1259;48.306;14.374;2022-09-01T15:03:02;18.20;99.90
2497;DHT22;1259;48.306;14.374;2022-09-01T15:05:37;18.20;99.90
2497;DHT22;1259;48.306;14.374;2022-09-01T15:08:04;18.30;99.90
2497;DHT22;1259;48.306;14.374;2022-09-01T15:10:32;18.30;99.90
2497;DHT22;1259;48.306;14.374;2022-09-01T15:13:00;18.20;99.90
2497;DHT22;1259;48.306;14.374;2022-09-01T15:15:28;18.20;99.90
2497;DHT22;1259;48.306;14.374;2022-09-01T15:17:57;18.30;99.90
2497;DHT22;1259;48.306;14.374;2022-09-01T15:20:24;18.10;99.90
2497;DHT22;1259;48.306;14.374;2022-09-01T15:23:10;18.00;99.90
2497;DHT22;1259;48.306;14.374;2022-09-01T15:25:44;18.10;99.90
2497;DHT22;1259;48.306;14.374;2022-09-01T15:28:17;18.10;99.90
2497;DHT22;1259;48.306;14.374;2022-09-01T15:30:49;18.00;99.90
2497;DHT22;1259;48.306;14.374;2022-09-01T15:33:39;18.00;99.90
2497;DHT22;1259;48.306;14.374;2022-09-01T15:36:07;18.00;99.90
2497;DHT22;1259;48.306;14.374;2022-09-01T15:38:35;17.90;99.90
2497;DHT22;1259;48.306;14.374;2022-09-01T15:41:18;17.80;99.90
2497;DHT22;1259;48.306;14.374;2022-09-01T15:43:53;17.80;99.90
2497;DHT22;1259;48.306;14.374;2022-09-01T15:46:26;17.80;99.90
2497;DHT22;1259;48.306;14.374;2022-09-01T15:48:57;17.90;99.90
2497;DHT22;1259;48.306;14.374;2022-09-01T15:51:31;17.90;99.90
2497;DHT22;1259;48.306;14.374;2022-09-01T15:54:02;17.80;99.90
2497;DHT22;1259;48.306;14.374;2022-09-01T15:56:32;17.70;99.90
2497;DHT22;1259;48.306;14.374;2022-09-01T15:59:00;17.80;99.90
2497;DHT22;1259;48.306;14.374;2022-09-01T16:01:29;17.70;99.90
2497;DHT22;1259;48.306;14.374;2022-09-01T16:03:56;17.60;99.90
2497;DHT22;1259;48.306;14.374;2022-09-01T16:06:26;17.60;99.90
2497;DHT22;1259;48.306;14.374;2022-09-01T16:08:58;17.70;99.90
2497;DHT22;1259;48.306;14.374;2022-09-01T16:11:32;17.70;99.90
2497;DHT22;1259;48.306;14.374;2022-09-01T16:14:07;17.80;99.90
2497;DHT22;1259;48.306;14.374;2022-09-01T16:16:46;17.90;99.90